createdAt,value
2018-04-07T00:04:03.152Z,7.00
2018-04-07T00:09:05.397Z,6.20
2018-04-07T00:14:06.921Z,5.80
2018-04-07T00:19:08.625Z,6.27
2018-04-07T00:24:10.144Z,6.37
2018-04-07T00:29:11.626Z,6.63
2018-04-07T00:34:13.224Z,7.20
2018-04-07T00:39:14.783Z,7.20
2018-04-07T00:44:16.260Z,6.67
2018-04-07T00:49:17.788Z,7.47
2018-04-07T00:54:20.062Z,6.50
2018-04-07T00:59:21.772Z,7.90
2018-04-07T01:04:23.289Z,7.70
2018-04-07T01:09:24.798Z,6.53
2018-04-07T01:14:26.347Z,7.77
2018-04-07T01:19:28.600Z,6.90
2018-04-07T01:24:30.124Z,8.00
2018-04-07T01:29:31.642Z,7.20
2018-04-07T01:34:33.189Z,6.37
2018-04-07T01:39:34.726Z,7.57
2018-04-07T01:44:36.225Z,7.40
2018-04-07T01:49:37.818Z,7.00
2018-04-07T01:54:39.348Z,6.57
2018-04-07T01:59:40.884Z,6.80
2018-04-07T02:04:42.449Z,6.90
2018-04-07T02:09:43.943Z,7.03
2018-04-07T02:14:45.477Z,6.77
2018-04-07T02:19:47.717Z,6.20
2018-04-07T02:24:49.321Z,6.60
2018-04-07T02:29:51.587Z,7.30
2018-04-07T02:34:53.144Z,7.20
2018-04-07T02:39:54.667Z,7.97
2018-04-07T02:44:56.197Z,8.33
2018-04-07T02:49:57.722Z,7.30
2018-04-07T02:54:59.266Z,7.10
2018-04-07T03:00:00.761Z,8.80
2018-04-07T03:05:02.285Z,8.10
2018-04-07T03:10:05.167Z,7.87
2018-04-07T03:15:06.679Z,7.33
2018-04-07T03:20:08.225Z,6.90
2018-04-07T03:25:10.713Z,7.67
2018-04-07T03:30:12.994Z,7.83
2018-04-07T03:35:15.309Z,8.33
2018-04-07T03:40:17.541Z,7.10
2018-04-07T03:45:19.037Z,6.83
2018-04-07T03:50:21.383Z,6.60
2018-04-07T03:55:22.929Z,7.90
2018-04-07T04:00:24.498Z,8.33
2018-04-07T04:05:25.994Z,7.10
2018-04-07T04:10:27.506Z,7.10
2018-04-07T04:15:29.078Z,7.57
2018-04-07T04:20:30.712Z,8.00
2018-04-07T04:25:32.238Z,7.33
2018-04-07T04:30:33.745Z,7.00
2018-04-07T04:35:35.249Z,7.73
2018-04-07T04:40:36.820Z,7.80
2018-04-07T04:45:45.301Z,7.73
2018-04-07T04:50:46.819Z,7.00
2018-04-07T04:55:48.329Z,8.20
2018-04-07T05:00:49.832Z,7.10
2018-04-07T05:05:52.094Z,6.77
2018-04-07T05:10:53.631Z,6.30
2018-04-07T05:15:55.183Z,7.40
2018-04-07T05:20:56.725Z,8.50
2018-04-07T05:25:58.977Z,6.63
2018-04-07T05:31:00.493Z,6.97
2018-04-07T05:36:01.994Z,7.40
2018-04-07T05:41:03.570Z,7.50
2018-04-07T05:46:05.055Z,7.37
2018-04-07T05:51:06.607Z,6.90
2018-04-07T05:56:08.113Z,8.23
2018-04-07T06:01:09.652Z,7.57
2018-04-07T06:06:11.184Z,7.90
2018-04-07T06:11:12.729Z,7.33
2018-04-07T06:16:14.242Z,7.30
2018-04-07T06:21:15.897Z,7.67
2018-04-07T06:26:17.451Z,6.50
2018-04-07T06:31:18.956Z,7.60
2018-04-07T06:36:20.537Z,7.43
2018-04-07T06:41:22.140Z,8.73
2018-04-07T06:46:23.649Z,9.03
2018-04-07T06:51:25.117Z,8.07
2018-04-07T06:56:26.633Z,8.80
2018-04-07T07:01:28.144Z,8.00
2018-04-07T07:06:29.719Z,9.60
2018-04-07T07:11:31.291Z,8.17
2018-04-07T07:16:32.853Z,9.00
2018-04-07T07:21:34.352Z,9.10
2018-04-07T07:26:35.979Z,8.10
2018-04-07T07:31:37.614Z,9.80
2018-04-07T07:36:39.121Z,8.33
2018-04-07T07:41:40.644Z,10.60
2018-04-07T07:46:42.206Z,8.87
2018-04-07T07:51:43.728Z,9.20
2018-04-07T07:56:45.261Z,9.07
2018-04-07T08:01:46.837Z,8.50
2018-04-07T08:06:48.582Z,9.07
2018-04-07T08:11:50.928Z,10.37
2018-04-07T08:16:52.428Z,9.90
2018-04-07T08:21:54.761Z,10.07
2018-04-07T08:26:56.370Z,10.40
2018-04-07T08:32:05.086Z,9.40
2018-04-07T08:37:06.577Z,10.13
2018-04-07T08:42:08.130Z,10.40
2018-04-07T08:47:09.642Z,10.67
2018-04-07T08:52:11.153Z,11.30
2018-04-07T08:57:12.760Z,10.00
2018-04-07T09:02:15.016Z,11.20
2018-04-07T09:07:16.537Z,11.33
2018-04-07T09:12:18.097Z,11.27
2018-04-07T09:17:19.595Z,11.93
2018-04-07T09:22:21.121Z,11.50
2018-04-07T09:27:23.368Z,12.17
2018-04-07T09:32:24.925Z,12.87
2018-04-07T09:37:26.479Z,11.10
2018-04-07T09:42:28.035Z,10.40
2018-04-07T09:47:29.634Z,12.20
2018-04-07T09:52:31.125Z,10.63
2018-04-07T09:57:32.656Z,12.10
2018-04-07T10:02:35.047Z,13.03
2018-04-07T10:07:36.591Z,12.90
2018-04-07T10:12:38.085Z,12.47
2018-04-07T10:17:39.632Z,12.40
2018-04-07T10:22:41.215Z,12.00
2018-04-07T10:27:42.813Z,12.50
2018-04-07T10:32:44.324Z,12.97
2018-04-07T10:37:46.078Z,13.00
2018-04-07T10:42:48.361Z,11.73
2018-04-07T10:47:50.688Z,12.27
2018-04-07T10:52:52.227Z,12.23
2018-04-07T10:57:53.772Z,12.60
2018-04-07T11:02:55.319Z,13.30
2018-04-07T11:07:56.859Z,12.90
2018-04-07T11:12:58.418Z,12.10
2018-04-07T11:18:00.681Z,12.90
2018-04-07T11:23:02.987Z,10.43
2018-04-07T11:28:04.449Z,12.60
2018-04-07T11:33:06.008Z,12.50
2018-04-07T11:38:07.600Z,11.50
2018-04-07T11:43:09.242Z,11.33
2018-04-07T11:48:11.507Z,12.13
2018-04-07T11:53:13.063Z,12.73
2018-04-07T11:58:14.589Z,11.70
2018-04-07T12:03:16.140Z,12.90
2018-04-07T12:08:17.884Z,13.00
2018-04-07T12:13:19.419Z,11.13
2018-04-07T12:18:20.947Z,12.50
2018-04-07T12:23:22.582Z,13.20
2018-04-07T12:28:24.134Z,11.63
2018-04-07T12:33:25.687Z,15.43
2018-04-07T12:38:27.205Z,10.60
2018-04-07T12:43:29.536Z,11.13
2018-04-07T12:48:31.057Z,10.50
2018-04-07T12:53:33.350Z,10.70
2018-04-07T12:58:35.798Z,10.63
2018-04-07T13:03:37.338Z,10.50
2018-04-07T13:08:38.921Z,10.40
2018-04-07T13:13:40.497Z,9.27
2018-04-07T13:18:42.041Z,11.50
2018-04-07T13:23:43.652Z,10.10
2018-04-07T13:28:45.177Z,9.63
2018-04-07T13:33:46.789Z,12.07
2018-04-07T13:38:48.389Z,10.27
2018-04-07T13:43:50.673Z,8.83
2018-04-07T13:48:53.514Z,10.13
2018-04-07T13:53:55.101Z,10.80
2018-04-07T13:58:56.809Z,9.20
2018-04-07T14:03:58.362Z,10.40
2018-04-07T14:08:59.900Z,9.30
2018-04-07T14:14:01.455Z,9.77
2018-04-07T14:19:03.000Z,8.40
2018-04-07T14:24:04.543Z,8.47
2018-04-07T14:29:06.857Z,9.20
2018-04-07T14:34:08.444Z,8.30
2018-04-07T14:39:10.022Z,9.13
2018-04-07T14:44:11.579Z,7.87
2018-04-07T14:49:13.083Z,7.57
2018-04-07T14:54:14.623Z,7.50
2018-04-07T14:59:16.177Z,5.93
2018-04-07T15:04:17.755Z,6.30
2018-04-07T15:09:19.235Z,7.60
2018-04-07T15:14:20.694Z,6.13
2018-04-07T15:19:22.203Z,7.77
2018-04-07T15:24:24.505Z,6.90
2018-04-07T15:29:26.030Z,6.07
2018-04-07T15:34:27.472Z,6.57
2018-04-07T15:39:29.125Z,5.60
2018-04-07T15:44:30.668Z,6.63
2018-04-07T15:49:33.008Z,7.07
2018-04-07T15:54:34.616Z,5.30
2018-04-07T15:59:36.919Z,5.67
2018-04-07T16:04:38.414Z,5.73
2018-04-07T16:09:39.991Z,5.47
2018-04-07T16:14:41.575Z,4.90
2018-04-07T16:19:43.209Z,5.10
2018-04-07T16:24:44.758Z,4.80
2018-04-07T16:29:46.292Z,4.90
2018-04-07T16:34:47.879Z,5.43
2018-04-07T16:39:50.140Z,4.83
2018-04-07T16:44:51.731Z,4.60
2018-04-07T16:49:54.004Z,4.00
2018-04-07T16:54:55.446Z,4.40
2018-04-07T16:59:57.003Z,4.47
2018-04-07T17:04:58.575Z,3.90
2018-04-07T17:10:00.289Z,5.47
2018-04-07T17:15:02.608Z,6.80
2018-04-07T17:20:04.082Z,6.60
2018-04-07T17:25:05.716Z,5.90
2018-04-07T17:30:08.008Z,6.50
2018-04-07T17:35:10.293Z,5.80
2018-04-07T17:40:12.554Z,5.43
2018-04-07T17:45:14.220Z,5.40
2018-04-07T17:50:15.785Z,5.23
2018-04-07T17:55:17.271Z,4.50
2018-04-07T18:00:18.928Z,5.47
2018-04-07T18:05:20.483Z,5.50
2018-04-07T18:10:22.087Z,5.47
2018-04-07T18:15:24.374Z,5.03
2018-04-07T18:20:26.684Z,6.53
2018-04-07T18:25:28.255Z,5.60
2018-04-07T18:30:29.787Z,6.70
2018-04-07T18:35:32.131Z,7.40
2018-04-07T18:40:33.684Z,7.97
2018-04-07T18:45:35.223Z,6.50
2018-04-07T18:50:36.780Z,5.80
2018-04-07T18:55:39.128Z,5.67
2018-04-07T19:00:40.700Z,5.70
2018-04-07T19:05:42.244Z,7.00
2018-04-07T19:10:43.840Z,7.03
2018-04-07T19:15:52.514Z,7.53
2018-04-07T19:20:54.926Z,7.40
2018-04-07T19:25:56.519Z,7.10
2018-04-07T19:30:57.988Z,6.80
2018-04-07T19:35:59.616Z,7.30
2018-04-07T19:41:01.181Z,8.00
2018-04-07T19:46:02.772Z,7.23
2018-04-07T19:51:04.348Z,7.20
2018-04-07T19:56:05.883Z,7.47
2018-04-07T20:01:08.166Z,8.30
2018-04-07T20:06:10.466Z,6.80
2018-04-07T20:11:12.136Z,7.40
2018-04-07T20:16:13.736Z,8.13
2018-04-07T20:21:15.333Z,7.90
2018-04-07T20:26:16.921Z,9.13
2018-04-07T20:31:19.237Z,8.83
2018-04-07T20:36:20.788Z,8.30
2018-04-07T20:41:22.400Z,9.67
2018-04-07T20:46:24.133Z,8.80
2018-04-07T20:51:25.682Z,9.03
2018-04-07T20:56:28.008Z,8.63
2018-04-07T21:01:29.638Z,8.50
2018-04-07T21:06:32.003Z,8.47
2018-04-07T21:11:33.573Z,8.80
2018-04-07T21:16:35.132Z,9.50
2018-04-07T21:21:36.742Z,8.77
2018-04-07T21:26:39.088Z,8.57
2018-04-07T21:31:40.640Z,9.10
2018-04-07T21:36:42.230Z,9.33
2018-04-07T21:41:43.834Z,9.30
2018-04-07T21:46:46.124Z,8.60
2018-04-07T21:51:47.678Z,8.03
2018-04-07T21:56:49.965Z,8.20
2018-04-07T22:01:52.297Z,8.80
2018-04-07T22:06:53.813Z,9.80
2018-04-07T22:11:56.110Z,9.30
2018-04-07T22:16:58.431Z,9.43
2018-04-07T22:22:00.018Z,9.73
2018-04-07T22:27:01.570Z,8.70
2018-04-07T22:32:03.132Z,8.70
2018-04-07T22:37:04.729Z,10.40
2018-04-07T22:42:06.331Z,9.73
2018-04-07T22:47:08.614Z,9.37
2018-04-07T22:52:10.899Z,8.03
2018-04-07T22:57:13.242Z,9.07
2018-04-07T23:02:14.832Z,9.50
2018-04-07T23:07:16.374Z,9.13
2018-04-07T23:12:17.943Z,10.00
2018-04-07T23:17:19.706Z,8.97
2018-04-07T23:22:21.494Z,8.97
2018-04-07T23:27:23.346Z,7.77
2018-04-07T23:32:24.882Z,9.60
2018-04-07T23:37:27.177Z,9.70
2018-04-07T23:42:29.472Z,9.13
2018-04-07T23:47:32.004Z,9.50
2018-04-07T23:52:40.621Z,8.90
2018-04-07T23:57:42.203Z,9.73
